sensor_id;sensor_type;location;lat;lon;timestamp;P1;durP1;ratioP1;P2;durP2;ratioP2
37855;SDS011;23694;43.274;26.924;2022-11-11T00:01:00;29.60;;;18.60;;
37855;SDS011;23694;43.274;26.924;2022-11-11T00:03:28;26.47;;;18.60;;
37855;SDS011;23694;43.274;26.924;2022-11-11T00:05:59;31.07;;;20.33;;
37855;SDS011;23694;43.274;26.924;2022-11-11T00:08:26;27.25;;;18.08;;
37855;SDS011;23694;43.274;26.924;2022-11-11T00:10:52;30.47;;;19.60;;
37855;SDS011;23694;43.274;26.924;2022-11-11T00:13:18;28.77;;;19.47;;
37855;SDS011;23694;43.274;26.924;2022-11-11T00:15:44;36.57;;;22.30;;
37855;SDS011;23694;43.274;26.924;2022-11-11T00:18:10;44.43;;;23.40;;
37855;SDS011;23694;43.274;26.924;2022-11-11T00:20:58;36.17;;;23.00;;
37855;SDS011;23694;43.274;26.924;2022-11-11T00:23:42;35.47;;;22.93;;
37855;SDS011;23694;43.274;26.924;2022-11-11T00:26:27;36.77;;;22.47;;
37855;SDS011;23694;43.274;26.924;2022-11-11T00:28:53;33.60;;;22.17;;
37855;SDS011;23694;43.274;26.924;2022-11-11T00:31:19;36.83;;;21.77;;
37855;SDS011;23694;43.274;26.924;2022-11-11T00:33:45;34.43;;;21.83;;
37855;SDS011;23694;43.274;26.924;2022-11-11T00:36:11;31.63;;;21.53;;
37855;SDS011;23694;43.274;26.924;2022-11-11T00:38:37;37.03;;;22.13;;
37855;SDS011;23694;43.274;26.924;2022-11-11T00:43:36;32.53;;;22.13;;
37855;SDS011;23694;43.274;26.924;2022-11-11T00:46:03;36.87;;;22.47;;
37855;SDS011;23694;43.274;26.924;2022-11-11T00:48:48;36.23;;;22.53;;
37855;SDS011;23694;43.274;26.924;2022-11-11T00:51:33;36.47;;;22.80;;
37855;SDS011;23694;43.274;26.924;2022-11-11T00:53:59;32.97;;;21.97;;
37855;SDS011;23694;43.274;26.924;2022-11-11T00:56:25;31.40;;;22.27;;
37855;SDS011;23694;43.274;26.924;2022-11-11T00:58:51;38.37;;;22.43;;
37855;SDS011;23694;43.274;26.924;2022-11-11T01:01:18;32.43;;;22.13;;
37855;SDS011;23694;43.274;26.924;2022-11-11T01:03:44;34.93;;;22.10;;
37855;SDS011;23694;43.274;26.924;2022-11-11T01:06:10;35.93;;;22.60;;
37855;SDS011;23694;43.274;26.924;2022-11-11T01:08:38;36.50;;;23.30;;
37855;SDS011;23694;43.274;26.924;2022-11-11T01:11:11;36.30;;;22.43;;
37855;SDS011;23694;43.274;26.924;2022-11-11T01:13:39;32.70;;;21.70;;
37855;SDS011;23694;43.274;26.924;2022-11-11T01:16:06;35.13;;;22.23;;
37855;SDS011;23694;43.274;26.924;2022-11-11T01:18:33;29.67;;;22.20;;
37855;SDS011;23694;43.274;26.924;2022-11-11T01:21:01;36.43;;;22.47;;
37855;SDS011;23694;43.274;26.924;2022-11-11T01:23:27;35.37;;;22.83;;
37855;SDS011;23694;43.274;26.924;2022-11-11T01:25:54;34.27;;;22.63;;
37855;SDS011;23694;43.274;26.924;2022-11-11T01:28:37;34.37;;;22.57;;
37855;SDS011;23694;43.274;26.924;2022-11-11T01:31:04;34.53;;;22.33;;
37855;SDS011;23694;43.274;26.924;2022-11-11T01:33:33;34.53;;;22.13;;
37855;SDS011;23694;43.274;26.924;2022-11-11T01:36:07;32.83;;;22.33;;
37855;SDS011;23694;43.274;26.924;2022-11-11T01:38:39;38.00;;;22.30;;
37855;SDS011;23694;43.274;26.924;2022-11-11T01:41:07;33.70;;;22.80;;
37855;SDS011;23694;43.274;26.924;2022-11-11T01:43:54;32.40;;;21.30;;
37855;SDS011;23694;43.274;26.924;2022-11-11T01:54:18;34.27;;;22.90;;
37855;SDS011;23694;43.274;26.924;2022-11-11T01:57:14;36.87;;;22.63;;
37855;SDS011;23694;43.274;26.924;2022-11-11T01:59:55;35.07;;;22.33;;
37855;SDS011;23694;43.274;26.924;2022-11-11T02:02:39;37.60;;;23.73;;
37855;SDS011;23694;43.274;26.924;2022-11-11T02:05:10;38.70;;;24.03;;
37855;SDS011;23694;43.274;26.924;2022-11-11T02:07:58;38.03;;;24.33;;
37855;SDS011;23694;43.274;26.924;2022-11-11T02:10:29;39.23;;;24.00;;
37855;SDS011;23694;43.274;26.924;2022-11-11T02:12:57;39.10;;;24.27;;
37855;SDS011;23694;43.274;26.924;2022-11-11T02:15:42;43.63;;;24.97;;
37855;SDS011;23694;43.274;26.924;2022-11-11T02:18:09;37.77;;;24.57;;
37855;SDS011;23694;43.274;26.924;2022-11-11T02:20:36;43.60;;;27.57;;
37855;SDS011;23694;43.274;26.924;2022-11-11T02:23:09;41.53;;;25.57;;
37855;SDS011;23694;43.274;26.924;2022-11-11T02:25:52;48.07;;;27.03;;
37855;SDS011;23694;43.274;26.924;2022-11-11T02:28:20;41.83;;;25.77;;
37855;SDS011;23694;43.274;26.924;2022-11-11T02:30:48;41.57;;;25.80;;
37855;SDS011;23694;43.274;26.924;2022-11-11T02:33:14;42.10;;;26.07;;
37855;SDS011;23694;43.274;26.924;2022-11-11T02:35:44;43.50;;;26.43;;
37855;SDS011;23694;43.274;26.924;2022-11-11T02:38:20;43.10;;;26.70;;
37855;SDS011;23694;43.274;26.924;2022-11-11T02:40:48;45.80;;;27.87;;
37855;SDS011;23694;43.274;26.924;2022-11-11T02:43:33;42.07;;;26.87;;
37855;SDS011;23694;43.274;26.924;2022-11-11T02:46:00;45.23;;;28.00;;
37855;SDS011;23694;43.274;26.924;2022-11-11T02:48:28;43.30;;;27.47;;
37855;SDS011;23694;43.274;26.924;2022-11-11T02:50:55;43.47;;;28.23;;
37855;SDS011;23694;43.274;26.924;2022-11-11T02:53:22;44.60;;;27.73;;
37855;SDS011;23694;43.274;26.924;2022-11-11T02:55:48;44.97;;;27.43;;
37855;SDS011;23694;43.274;26.924;2022-11-11T02:58:14;42.60;;;26.60;;
37855;SDS011;23694;43.274;26.924;2022-11-11T03:00:41;43.83;;;26.77;;
37855;SDS011;23694;43.274;26.924;2022-11-11T03:03:08;43.77;;;27.43;;
37855;SDS011;23694;43.274;26.924;2022-11-11T03:05:35;41.03;;;27.13;;
37855;SDS011;23694;43.274;26.924;2022-11-11T03:08:01;47.30;;;27.93;;
37855;SDS011;23694;43.274;26.924;2022-11-11T03:10:32;46.83;;;27.52;;
37855;SDS011;23694;43.274;26.924;2022-11-11T03:12:58;39.43;;;26.13;;
37855;SDS011;23694;43.274;26.924;2022-11-11T03:15:24;46.97;;;28.07;;
37855;SDS011;23694;43.274;26.924;2022-11-11T03:17:50;47.00;;;28.00;;
37855;SDS011;23694;43.274;26.924;2022-11-11T03:20:17;48.27;;;28.40;;
37855;SDS011;23694;43.274;26.924;2022-11-11T03:23:03;46.03;;;28.70;;
37855;SDS011;23694;43.274;26.924;2022-11-11T03:25:40;48.27;;;28.17;;
37855;SDS011;23694;43.274;26.924;2022-11-11T03:28:10;44.03;;;29.10;;
37855;SDS011;23694;43.274;26.924;2022-11-11T03:30:37;47.80;;;28.87;;
37855;SDS011;23694;43.274;26.924;2022-11-11T03:33:07;47.90;;;28.87;;
37855;SDS011;23694;43.274;26.924;2022-11-11T03:35:33;51.43;;;31.43;;
37855;SDS011;23694;43.274;26.924;2022-11-11T03:38:00;51.07;;;29.37;;
37855;SDS011;23694;43.274;26.924;2022-11-11T03:40:45;53.23;;;30.73;;
37855;SDS011;23694;43.274;26.924;2022-11-11T03:43:13;51.57;;;29.67;;
37855;SDS011;23694;43.274;26.924;2022-11-11T03:45:41;50.07;;;29.73;;
37855;SDS011;23694;43.274;26.924;2022-11-11T03:48:08;47.87;;;30.27;;
37855;SDS011;23694;43.274;26.924;2022-11-11T03:50:34;45.87;;;29.80;;
37855;SDS011;23694;43.274;26.924;2022-11-11T03:53:00;42.50;;;27.63;;
37855;SDS011;23694;43.274;26.924;2022-11-11T03:55:26;48.70;;;30.00;;
37855;SDS011;23694;43.274;26.924;2022-11-11T03:57:53;49.03;;;29.90;;
37855;SDS011;23694;43.274;26.924;2022-11-11T04:00:20;53.13;;;31.57;;
37855;SDS011;23694;43.274;26.924;2022-11-11T04:02:48;47.13;;;30.63;;
37855;SDS011;23694;43.274;26.924;2022-11-11T04:05:33;50.33;;;31.57;;
37855;SDS011;23694;43.274;26.924;2022-11-11T04:08:18;52.80;;;31.37;;
37855;SDS011;23694;43.274;26.924;2022-11-11T04:11:06;52.10;;;31.83;;
37855;SDS011;23694;43.274;26.924;2022-11-11T04:13:37;66.50;;;43.80;;
37855;SDS011;23694;43.274;26.924;2022-11-11T04:16:26;64.87;;;36.27;;
37855;SDS011;23694;43.274;26.924;2022-11-11T04:18:52;48.77;;;31.43;;
37855;SDS011;23694;43.274;26.924;2022-11-11T04:21:36;58.80;;;37.90;;
37855;SDS011;23694;43.274;26.924;2022-11-11T04:24:09;53.38;;;33.50;;
37855;SDS011;23694;43.274;26.924;2022-11-11T04:26:58;50.93;;;32.63;;
37855;SDS011;23694;43.274;26.924;2022-11-11T04:29:27;48.10;;;31.93;;
37855;SDS011;23694;43.274;26.924;2022-11-11T04:31:57;84.73;;;54.50;;
37855;SDS011;23694;43.274;26.924;2022-11-11T04:34:50;60.63;;;37.67;;
37855;SDS011;23694;43.274;26.924;2022-11-11T04:37:18;50.65;;;30.67;;
37855;SDS011;23694;43.274;26.924;2022-11-11T04:39:49;53.67;;;31.80;;
37855;SDS011;23694;43.274;26.924;2022-11-11T04:42:34;59.37;;;38.20;;
37855;SDS011;23694;43.274;26.924;2022-11-11T04:45:00;53.87;;;33.10;;
37855;SDS011;23694;43.274;26.924;2022-11-11T04:48:02;51.70;;;31.97;;
37855;SDS011;23694;43.274;26.924;2022-11-11T04:50:32;47.50;;;29.43;;
37855;SDS011;23694;43.274;26.924;2022-11-11T04:53:01;52.88;;;33.40;;
37855;SDS011;23694;43.274;26.924;2022-11-11T04:55:28;54.20;;;31.23;;
37855;SDS011;23694;43.274;26.924;2022-11-11T04:58:14;78.67;;;50.13;;
37855;SDS011;23694;43.274;26.924;2022-11-11T05:00:40;50.33;;;30.83;;
37855;SDS011;23694;43.274;26.924;2022-11-11T05:03:11;50.27;;;30.50;;
37855;SDS011;23694;43.274;26.924;2022-11-11T05:06:02;48.80;;;29.57;;
37855;SDS011;23694;43.274;26.924;2022-11-11T05:08:46;48.27;;;29.97;;
37855;SDS011;23694;43.274;26.924;2022-11-11T05:11:27;55.17;;;32.97;;
37855;SDS011;23694;43.274;26.924;2022-11-11T05:13:58;58.13;;;33.80;;
37855;SDS011;23694;43.274;26.924;2022-11-11T05:16:48;50.90;;;31.93;;
37855;SDS011;23694;43.274;26.924;2022-11-11T05:19:35;52.40;;;32.67;;
37855;SDS011;23694;43.274;26.924;2022-11-11T05:22:30;52.83;;;33.03;;
37855;SDS011;23694;43.274;26.924;2022-11-11T05:25:00;48.73;;;31.77;;
37855;SDS011;23694;43.274;26.924;2022-11-11T05:27:45;47.90;;;29.30;;
37855;SDS011;23694;43.274;26.924;2022-11-11T05:30:13;50.63;;;32.27;;
37855;SDS011;23694;43.274;26.924;2022-11-11T05:32:40;52.77;;;32.60;;
37855;SDS011;23694;43.274;26.924;2022-11-11T05:35:07;56.97;;;32.40;;
37855;SDS011;23694;43.274;26.924;2022-11-11T05:37:34;52.27;;;30.20;;
37855;SDS011;23694;43.274;26.924;2022-11-11T05:40:01;55.93;;;31.43;;
37855;SDS011;23694;43.274;26.924;2022-11-11T05:42:27;55.33;;;31.13;;
37855;SDS011;23694;43.274;26.924;2022-11-11T05:44:53;55.53;;;29.97;;
37855;SDS011;23694;43.274;26.924;2022-11-11T05:47:19;61.17;;;33.40;;
37855;SDS011;23694;43.274;26.924;2022-11-11T05:49:45;57.33;;;34.17;;
37855;SDS011;23694;43.274;26.924;2022-11-11T05:52:11;56.67;;;33.03;;
37855;SDS011;23694;43.274;26.924;2022-11-11T05:54:40;59.27;;;31.13;;
37855;SDS011;23694;43.274;26.924;2022-11-11T05:57:07;60.90;;;33.87;;
37855;SDS011;23694;43.274;26.924;2022-11-11T05:59:33;61.43;;;34.17;;
37855;SDS011;23694;43.274;26.924;2022-11-11T06:02:00;62.30;;;35.27;;
37855;SDS011;23694;43.274;26.924;2022-11-11T06:04:26;67.93;;;33.47;;
37855;SDS011;23694;43.274;26.924;2022-11-11T06:06:53;65.40;;;35.77;;
37855;SDS011;23694;43.274;26.924;2022-11-11T06:09:19;64.43;;;35.97;;
37855;SDS011;23694;43.274;26.924;2022-11-11T06:11:46;54.37;;;33.77;;
37855;SDS011;23694;43.274;26.924;2022-11-11T06:14:12;59.23;;;33.97;;
37855;SDS011;23694;43.274;26.924;2022-11-11T06:16:38;56.60;;;32.57;;
37855;SDS011;23694;43.274;26.924;2022-11-11T06:19:04;54.63;;;31.93;;
37855;SDS011;23694;43.274;26.924;2022-11-11T06:21:30;59.23;;;32.93;;
37855;SDS011;23694;43.274;26.924;2022-11-11T06:24:16;54.97;;;30.57;;
37855;SDS011;23694;43.274;26.924;2022-11-11T06:26:42;66.20;;;36.00;;
37855;SDS011;23694;43.274;26.924;2022-11-11T06:29:08;60.43;;;32.87;;
37855;SDS011;23694;43.274;26.924;2022-11-11T06:31:34;56.03;;;32.40;;
37855;SDS011;23694;43.274;26.924;2022-11-11T06:34:00;64.07;;;33.87;;
37855;SDS011;23694;43.274;26.924;2022-11-11T06:36:26;55.73;;;34.77;;
37855;SDS011;23694;43.274;26.924;2022-11-11T06:38:52;61.00;;;33.93;;
37855;SDS011;23694;43.274;26.924;2022-11-11T06:41:18;63.20;;;34.03;;
37855;SDS011;23694;43.274;26.924;2022-11-11T06:43:45;54.60;;;31.83;;
37855;SDS011;23694;43.274;26.924;2022-11-11T06:46:21;51.53;;;33.30;;
37855;SDS011;23694;43.274;26.924;2022-11-11T06:48:48;67.47;;;34.63;;
37855;SDS011;23694;43.274;26.924;2022-11-11T06:51:15;64.13;;;35.00;;
37855;SDS011;23694;43.274;26.924;2022-11-11T06:53:42;59.53;;;33.60;;
37855;SDS011;23694;43.274;26.924;2022-11-11T06:56:08;58.50;;;33.70;;
37855;SDS011;23694;43.274;26.924;2022-11-11T06:58:34;56.67;;;32.70;;
37855;SDS011;23694;43.274;26.924;2022-11-11T07:01:04;62.80;;;33.70;;
37855;SDS011;23694;43.274;26.924;2022-11-11T07:03:31;65.53;;;36.73;;
37855;SDS011;23694;43.274;26.924;2022-11-11T07:06:01;78.03;;;45.17;;
37855;SDS011;23694;43.274;26.924;2022-11-11T07:08:29;81.07;;;46.03;;
37855;SDS011;23694;43.274;26.924;2022-11-11T07:10:55;88.13;;;50.43;;
37855;SDS011;23694;43.274;26.924;2022-11-11T07:13:21;83.73;;;52.77;;
37855;SDS011;23694;43.274;26.924;2022-11-11T07:15:48;81.93;;;48.30;;
37855;SDS011;23694;43.274;26.924;2022-11-11T07:18:14;86.17;;;47.83;;
37855;SDS011;23694;43.274;26.924;2022-11-11T07:20:40;79.47;;;46.07;;
37855;SDS011;23694;43.274;26.924;2022-11-11T07:23:06;73.97;;;46.57;;
37855;SDS011;23694;43.274;26.924;2022-11-11T07:25:32;70.97;;;44.90;;
37855;SDS011;23694;43.274;26.924;2022-11-11T07:27:59;73.10;;;45.03;;
37855;SDS011;23694;43.274;26.924;2022-11-11T07:30:25;74.13;;;44.00;;
37855;SDS011;23694;43.274;26.924;2022-11-11T07:32:52;72.10;;;42.90;;
37855;SDS011;23694;43.274;26.924;2022-11-11T07:35:19;69.27;;;44.97;;
37855;SDS011;23694;43.274;26.924;2022-11-11T07:37:46;69.40;;;45.37;;
37855;SDS011;23694;43.274;26.924;2022-11-11T07:40:13;67.53;;;43.03;;
37855;SDS011;23694;43.274;26.924;2022-11-11T07:42:41;70.87;;;43.90;;
37855;SDS011;23694;43.274;26.924;2022-11-11T07:45:08;73.00;;;44.17;;
37855;SDS011;23694;43.274;26.924;2022-11-11T07:47:37;69.70;;;45.20;;
37855;SDS011;23694;43.274;26.924;2022-11-11T07:50:04;76.93;;;46.73;;
37855;SDS011;23694;43.274;26.924;2022-11-11T07:52:32;68.23;;;43.93;;
37855;SDS011;23694;43.274;26.924;2022-11-11T07:54:59;71.93;;;45.37;;
37855;SDS011;23694;43.274;26.924;2022-11-11T07:57:25;76.73;;;46.70;;
37855;SDS011;23694;43.274;26.924;2022-11-11T07:59:51;74.10;;;47.03;;
37855;SDS011;23694;43.274;26.924;2022-11-11T08:02:17;83.47;;;47.60;;
37855;SDS011;23694;43.274;26.924;2022-11-11T08:04:43;81.90;;;48.77;;
37855;SDS011;23694;43.274;26.924;2022-11-11T08:07:10;83.27;;;48.33;;
37855;SDS011;23694;43.274;26.924;2022-11-11T08:09:36;79.73;;;47.33;;
37855;SDS011;23694;43.274;26.924;2022-11-11T08:12:05;78.17;;;49.67;;
37855;SDS011;23694;43.274;26.924;2022-11-11T08:14:50;79.00;;;48.37;;
37855;SDS011;23694;43.274;26.924;2022-11-11T08:17:16;77.37;;;46.93;;
37855;SDS011;23694;43.274;26.924;2022-11-11T08:19:42;75.03;;;47.07;;
37855;SDS011;23694;43.274;26.924;2022-11-11T08:22:08;72.90;;;45.57;;
37855;SDS011;23694;43.274;26.924;2022-11-11T08:24:34;82.17;;;46.67;;
37855;SDS011;23694;43.274;26.924;2022-11-11T08:27:00;76.57;;;46.90;;
37855;SDS011;23694;43.274;26.924;2022-11-11T08:29:26;74.57;;;46.50;;
37855;SDS011;23694;43.274;26.924;2022-11-11T08:31:52;75.53;;;46.60;;
37855;SDS011;23694;43.274;26.924;2022-11-11T08:34:18;71.60;;;44.57;;
37855;SDS011;23694;43.274;26.924;2022-11-11T08:36:44;74.60;;;46.53;;
37855;SDS011;23694;43.274;26.924;2022-11-11T08:39:10;73.47;;;46.30;;
37855;SDS011;23694;43.274;26.924;2022-11-11T08:41:36;77.13;;;46.70;;
37855;SDS011;23694;43.274;26.924;2022-11-11T08:44:02;78.67;;;45.30;;
37855;SDS011;23694;43.274;26.924;2022-11-11T08:46:29;80.27;;;47.23;;
37855;SDS011;23694;43.274;26.924;2022-11-11T08:48:56;74.97;;;45.47;;
37855;SDS011;23694;43.274;26.924;2022-11-11T08:51:22;68.37;;;42.30;;
37855;SDS011;23694;43.274;26.924;2022-11-11T08:53:48;74.17;;;44.77;;
37855;SDS011;23694;43.274;26.924;2022-11-11T08:56:14;76.93;;;45.70;;
37855;SDS011;23694;43.274;26.924;2022-11-11T08:58:43;72.63;;;44.77;;
37855;SDS011;23694;43.274;26.924;2022-11-11T09:01:10;77.17;;;45.17;;
37855;SDS011;23694;43.274;26.924;2022-11-11T09:03:38;72.87;;;44.33;;
37855;SDS011;23694;43.274;26.924;2022-11-11T09:06:08;75.50;;;44.10;;
37855;SDS011;23694;43.274;26.924;2022-11-11T09:08:35;68.50;;;41.20;;
37855;SDS011;23694;43.274;26.924;2022-11-11T09:11:01;66.47;;;40.63;;
37855;SDS011;23694;43.274;26.924;2022-11-11T09:13:27;63.43;;;38.30;;
37855;SDS011;23694;43.274;26.924;2022-11-11T09:15:53;66.53;;;38.80;;
37855;SDS011;23694;43.274;26.924;2022-11-11T09:18:20;58.60;;;36.10;;
37855;SDS011;23694;43.274;26.924;2022-11-11T09:20:46;61.23;;;36.23;;
37855;SDS011;23694;43.274;26.924;2022-11-11T09:23:12;58.67;;;36.00;;
37855;SDS011;23694;43.274;26.924;2022-11-11T09:25:38;60.53;;;37.17;;
37855;SDS011;23694;43.274;26.924;2022-11-11T09:28:04;69.17;;;39.10;;
37855;SDS011;23694;43.274;26.924;2022-11-11T09:30:30;65.30;;;37.50;;
37855;SDS011;23694;43.274;26.924;2022-11-11T09:33:02;58.73;;;36.30;;
37855;SDS011;23694;43.274;26.924;2022-11-11T09:35:29;60.40;;;36.00;;
37855;SDS011;23694;43.274;26.924;2022-11-11T09:37:57;61.83;;;35.53;;
37855;SDS011;23694;43.274;26.924;2022-11-11T09:40:25;62.40;;;37.23;;
37855;SDS011;23694;43.274;26.924;2022-11-11T09:46:09;59.23;;;36.33;;
37855;SDS011;23694;43.274;26.924;2022-11-11T09:51:24;63.10;;;36.03;;
37855;SDS011;23694;43.274;26.924;2022-11-11T09:54:03;66.83;;;38.13;;
37855;SDS011;23694;43.274;26.924;2022-11-11T09:56:33;64.30;;;36.63;;
37855;SDS011;23694;43.274;26.924;2022-11-11T09:59:10;67.27;;;36.63;;
37855;SDS011;23694;43.274;26.924;2022-11-11T10:01:52;57.25;;;36.85;;
37855;SDS011;23694;43.274;26.924;2022-11-11T10:07:02;58.03;;;35.13;;
37855;SDS011;23694;43.274;26.924;2022-11-11T10:09:34;61.87;;;35.23;;
37855;SDS011;23694;43.274;26.924;2022-11-11T10:12:11;65.10;;;34.57;;
37855;SDS011;23694;43.274;26.924;2022-11-11T10:14:49;61.93;;;35.50;;
37855;SDS011;23694;43.274;26.924;2022-11-11T10:17:33;58.40;;;33.03;;
37855;SDS011;23694;43.274;26.924;2022-11-11T10:22:40;62.43;;;35.43;;
37855;SDS011;23694;43.274;26.924;2022-11-11T10:27:38;64.67;;;36.80;;
37855;SDS011;23694;43.274;26.924;2022-11-11T10:30:13;64.03;;;34.63;;
37855;SDS011;23694;43.274;26.924;2022-11-11T10:32:43;61.13;;;35.17;;
37855;SDS011;23694;43.274;26.924;2022-11-11T10:37:41;66.87;;;38.03;;
37855;SDS011;23694;43.274;26.924;2022-11-11T10:42:37;71.00;;;39.80;;
37855;SDS011;23694;43.274;26.924;2022-11-11T10:45:07;69.73;;;38.63;;
37855;SDS011;23694;43.274;26.924;2022-11-11T10:50:41;66.20;;;38.87;;
37855;SDS011;23694;43.274;26.924;2022-11-11T11:00:57;66.57;;;37.07;;
37855;SDS011;23694;43.274;26.924;2022-11-11T11:03:31;60.40;;;37.47;;
37855;SDS011;23694;43.274;26.924;2022-11-11T11:06:24;63.43;;;36.63;;
37855;SDS011;23694;43.274;26.924;2022-11-11T11:09:00;59.53;;;35.93;;
37855;SDS011;23694;43.274;26.924;2022-11-11T11:11:53;62.77;;;37.43;;
37855;SDS011;23694;43.274;26.924;2022-11-11T11:14:28;61.10;;;37.67;;
37855;SDS011;23694;43.274;26.924;2022-11-11T11:16:59;60.33;;;35.17;;
37855;SDS011;23694;43.274;26.924;2022-11-11T11:19:33;58.87;;;34.90;;
37855;SDS011;23694;43.274;26.924;2022-11-11T11:22:02;57.90;;;34.27;;
37855;SDS011;23694;43.274;26.924;2022-11-11T11:24:30;50.93;;;31.70;;
37855;SDS011;23694;43.274;26.924;2022-11-11T11:26:59;45.37;;;28.93;;
37855;SDS011;23694;43.274;26.924;2022-11-11T11:29:40;56.07;;;32.43;;
37855;SDS011;23694;43.274;26.924;2022-11-11T11:34:46;43.33;;;27.43;;
37855;SDS011;23694;43.274;26.924;2022-11-11T11:37:12;46.47;;;27.77;;
37855;SDS011;23694;43.274;26.924;2022-11-11T11:39:39;48.17;;;30.43;;
37855;SDS011;23694;43.274;26.924;2022-11-11T11:42:05;51.67;;;30.80;;
37855;SDS011;23694;43.274;26.924;2022-11-11T11:44:37;53.27;;;33.80;;
37855;SDS011;23694;43.274;26.924;2022-11-11T12:00:04;42.67;;;27.40;;
37855;SDS011;23694;43.274;26.924;2022-11-11T12:05:47;47.67;;;30.90;;
37855;SDS011;23694;43.274;26.924;2022-11-11T12:11:12;53.47;;;35.17;;
37855;SDS011;23694;43.274;26.924;2022-11-11T12:16:25;38.80;;;24.47;;
37855;SDS011;23694;43.274;26.924;2022-11-11T12:19:34;90.30;;;65.23;;
37855;SDS011;23694;43.274;26.924;2022-11-11T12:22:24;65.67;;;43.97;;
37855;SDS011;23694;43.274;26.924;2022-11-11T12:30:46;34.77;;;21.63;;
37855;SDS011;23694;43.274;26.924;2022-11-11T12:44:04;27.88;;;19.88;;
37855;SDS011;23694;43.274;26.924;2022-11-11T13:16:18;22.60;;;13.77;;
37855;SDS011;23694;43.274;26.924;2022-11-11T13:21:54;17.80;;;12.83;;
37855;SDS011;23694;43.274;26.924;2022-11-11T13:24:25;16.27;;;12.80;;
37855;SDS011;23694;43.274;26.924;2022-11-11T13:26:57;19.30;;;13.47;;
37855;SDS011;23694;43.274;26.924;2022-11-11T13:30:04;17.90;;;13.23;;
37855;SDS011;23694;43.274;26.924;2022-11-11T13:32:59;18.97;;;13.20;;
37855;SDS011;23694;43.274;26.924;2022-11-11T13:35:37;19.73;;;13.90;;
37855;SDS011;23694;43.274;26.924;2022-11-11T13:38:10;20.40;;;14.67;;
37855;SDS011;23694;43.274;26.924;2022-11-11T13:40:47;21.97;;;15.63;;
37855;SDS011;23694;43.274;26.924;2022-11-11T13:43:17;24.77;;;18.20;;
37855;SDS011;23694;43.274;26.924;2022-11-11T13:45:49;27.00;;;18.60;;
37855;SDS011;23694;43.274;26.924;2022-11-11T13:48:29;27.60;;;18.60;;
37855;SDS011;23694;43.274;26.924;2022-11-11T13:53:56;36.13;;;26.60;;
37855;SDS011;23694;43.274;26.924;2022-11-11T13:56:43;40.00;;;27.50;;
37855;SDS011;23694;43.274;26.924;2022-11-11T13:59:30;33.97;;;25.60;;
37855;SDS011;23694;43.274;26.924;2022-11-11T14:12:48;22.53;;;18.37;;
37855;SDS011;23694;43.274;26.924;2022-11-11T14:18:09;28.80;;;21.15;;
37855;SDS011;23694;43.274;26.924;2022-11-11T14:20:56;28.03;;;21.47;;
37855;SDS011;23694;43.274;26.924;2022-11-11T14:23:23;28.80;;;22.00;;
37855;SDS011;23694;43.274;26.924;2022-11-11T14:26:23;26.77;;;18.43;;
37855;SDS011;23694;43.274;26.924;2022-11-11T14:28:51;25.43;;;18.33;;
37855;SDS011;23694;43.274;26.924;2022-11-11T14:36:35;27.30;;;20.03;;
37855;SDS011;23694;43.274;26.924;2022-11-11T14:41:55;26.90;;;17.80;;
37855;SDS011;23694;43.274;26.924;2022-11-11T14:58:00;8.97;;;7.60;;
37855;SDS011;23694;43.274;26.924;2022-11-11T15:20:23;16.43;;;12.47;;
37855;SDS011;23694;43.274;26.924;2022-11-11T15:23:09;14.37;;;11.30;;
37855;SDS011;23694;43.274;26.924;2022-11-11T15:36:29;16.03;;;12.37;;
37855;SDS011;23694;43.274;26.924;2022-11-11T15:39:10;16.20;;;12.83;;
37855;SDS011;23694;43.274;26.924;2022-11-11T15:41:41;18.83;;;12.65;;
37855;SDS011;23694;43.274;26.924;2022-11-11T15:44:27;16.70;;;12.47;;
37855;SDS011;23694;43.274;26.924;2022-11-11T15:46:56;14.70;;;11.10;;
37855;SDS011;23694;43.274;26.924;2022-11-11T15:49:37;19.90;;;16.60;;
37855;SDS011;23694;43.274;26.924;2022-11-11T15:52:04;23.97;;;19.60;;
37855;SDS011;23694;43.274;26.924;2022-11-11T15:54:48;14.80;;;11.00;;
37855;SDS011;23694;43.274;26.924;2022-11-11T15:59:55;19.83;;;15.60;;
37855;SDS011;23694;43.274;26.924;2022-11-11T16:02:23;29.47;;;26.20;;
37855;SDS011;23694;43.274;26.924;2022-11-11T16:04:55;9.87;;;8.10;;
37855;SDS011;23694;43.274;26.924;2022-11-11T16:07:40;10.03;;;8.03;;
37855;SDS011;23694;43.274;26.924;2022-11-11T16:10:09;11.23;;;8.70;;
37855;SDS011;23694;43.274;26.924;2022-11-11T16:13:20;10.27;;;8.73;;
37855;SDS011;23694;43.274;26.924;2022-11-11T16:15:56;15.13;;;10.67;;
37855;SDS011;23694;43.274;26.924;2022-11-11T16:18:40;14.30;;;10.73;;
37855;SDS011;23694;43.274;26.924;2022-11-11T16:21:15;9.87;;;7.37;;
37855;SDS011;23694;43.274;26.924;2022-11-11T16:23:48;8.00;;;6.40;;
37855;SDS011;23694;43.274;26.924;2022-11-11T16:26:15;11.30;;;7.60;;
37855;SDS011;23694;43.274;26.924;2022-11-11T16:28:45;10.47;;;7.87;;
37855;SDS011;23694;43.274;26.924;2022-11-11T16:33:59;8.73;;;7.10;;
37855;SDS011;23694;43.274;26.924;2022-11-11T16:36:26;9.07;;;7.17;;
37855;SDS011;23694;43.274;26.924;2022-11-11T16:38:52;11.50;;;7.83;;
37855;SDS011;23694;43.274;26.924;2022-11-11T16:43:58;10.73;;;8.53;;
37855;SDS011;23694;43.274;26.924;2022-11-11T16:46:37;11.00;;;7.77;;
37855;SDS011;23694;43.274;26.924;2022-11-11T16:49:12;10.73;;;8.37;;
37855;SDS011;23694;43.274;26.924;2022-11-11T16:51:53;12.10;;;9.20;;
37855;SDS011;23694;43.274;26.924;2022-11-11T16:54:21;11.17;;;8.00;;
37855;SDS011;23694;43.274;26.924;2022-11-11T16:56:56;10.67;;;9.47;;
37855;SDS011;23694;43.274;26.924;2022-11-11T17:02:02;46.20;;;23.67;;
37855;SDS011;23694;43.274;26.924;2022-11-11T17:04:44;62.53;;;31.23;;
37855;SDS011;23694;43.274;26.924;2022-11-11T17:07:34;18.70;;;13.87;;
37855;SDS011;23694;43.274;26.924;2022-11-11T17:12:34;177.33;;;74.50;;
37855;SDS011;23694;43.274;26.924;2022-11-11T17:15:05;39.30;;;21.93;;
37855;SDS011;23694;43.274;26.924;2022-11-11T17:17:33;20.23;;;13.80;;
37855;SDS011;23694;43.274;26.924;2022-11-11T17:20:02;15.67;;;12.27;;
37855;SDS011;23694;43.274;26.924;2022-11-11T17:22:31;14.90;;;12.13;;
37855;SDS011;23694;43.274;26.924;2022-11-11T17:24:57;13.27;;;11.57;;
37855;SDS011;23694;43.274;26.924;2022-11-11T17:27:23;19.33;;;14.23;;
37855;SDS011;23694;43.274;26.924;2022-11-11T17:29:49;17.97;;;15.40;;
37855;SDS011;23694;43.274;26.924;2022-11-11T17:32:15;15.93;;;13.90;;
37855;SDS011;23694;43.274;26.924;2022-11-11T17:34:42;15.77;;;13.33;;
37855;SDS011;23694;43.274;26.924;2022-11-11T17:37:08;18.23;;;13.70;;
37855;SDS011;23694;43.274;26.924;2022-11-11T17:39:34;16.37;;;14.20;;
37855;SDS011;23694;43.274;26.924;2022-11-11T17:42:00;19.20;;;15.43;;
37855;SDS011;23694;43.274;26.924;2022-11-11T17:44:26;16.67;;;13.60;;
37855;SDS011;23694;43.274;26.924;2022-11-11T17:46:52;17.83;;;13.43;;
37855;SDS011;23694;43.274;26.924;2022-11-11T17:49:18;19.00;;;14.47;;